Time;durP1;ratioP1;P1;durP2;ratioP2;P2;SDS_P1;SDS_P2;PMS_P1;PMS_P2;Temp;Humidity;BMP_temperature;BMP_pressure;BME280_temperature;BME280_humidity;BME280_pressure;Samples;Min_cycle;Max_cycle;Signal;HPM_P1;HPM_P2
2022/07/19 00:02:26;;;;;;;4.22;2.10;;;;;;;24.76;39.36;100847.13;9908285;29;20205;-80
2022/07/19 00:07:28;;;;;;;6.20;2.20;;;;;;;24.64;39.26;100836.75;9910033;29;20279;-80
2022/07/19 00:12:31;;;;;;;2.95;2.08;;;;;;;24.69;38.92;100839.25;9909329;29;20233;-80
2022/07/19 00:17:33;;;;;;;6.53;2.13;;;;;;;24.51;39.64;100829.56;9927496;29;20265;-80
2022/07/19 00:22:35;;;;;;;6.47;2.00;;;;;;;24.22;40.86;100830.31;9915748;30;20255;-80
2022/07/19 00:27:38;;;;;;;5.93;2.50;;;;;;;24.31;40.63;100816.56;9900542;30;20549;-80
2022/07/19 00:32:40;;;;;;;3.50;2.33;;;;;;;23.96;41.72;100820.50;9915475;29;20233;-80
2022/07/19 00:37:43;;;;;;;2.95;2.15;;;;;;;24.08;41.53;100818.66;9885230;30;20588;-80
2022/07/19 00:42:54;;;;;;;2.53;2.33;;;;;;;24.01;42.17;100825.06;9900596;30;20197;-80
2022/07/19 00:47:57;;;;;;;4.57;2.10;;;;;;;24.09;40.54;100820.31;9914443;29;20205;-80
2022/07/19 00:53:04;;;;;;;4.68;2.20;;;;;;;24.29;40.56;100816.97;9915236;30;20664;-79
2022/07/19 00:58:06;;;;;;;5.72;2.28;;;;;;;24.22;40.68;100816.03;9914263;30;20190;-80
2022/07/19 01:03:09;;;;;;;5.82;2.10;;;;;;;23.94;41.31;100810.66;9899020;30;20193;-80
2022/07/19 01:08:11;;;;;;;4.78;2.15;;;;;;;23.72;41.92;100812.28;9883446;30;20202;-80
2022/07/19 01:13:14;;;;;;;4.00;2.33;;;;;;;23.69;41.75;100818.75;9913422;30;20266;-79
2022/07/19 01:18:16;;;;;;;6.65;2.17;;;;;;;23.62;41.96;100818.59;9897887;30;20254;-79
2022/07/19 01:23:18;;;;;;;7.25;2.53;;;;;;;23.87;41.36;100816.22;9898675;30;20584;-80
2022/07/19 01:28:21;;;;;;;4.30;2.30;;;;;;;23.80;42.24;100814.06;9898219;30;20262;-80
2022/07/19 01:33:23;;;;;;;6.68;2.45;;;;;;;23.96;41.29;100822.53;9912704;30;20229;-81
2022/07/19 01:38:25;;;;;;;3.83;1.98;;;;;;;23.80;42.61;100816.91;9912818;30;20202;-80
2022/07/19 01:43:28;;;;;;;5.05;2.50;;;;;;;23.53;42.50;100820.88;9912404;30;20258;-80
2022/07/19 01:48:30;;;;;;;3.53;1.63;;;;;;;23.78;41.24;100822.19;9911171;29;20704;-80
2022/07/19 01:53:33;;;;;;;3.95;2.00;;;;;;;23.46;41.75;100820.75;9937169;29;20250;-80
2022/07/19 01:58:35;;;;;;;5.15;2.22;;;;;;;23.41;42.20;100821.06;9934487;29;20193;-80
2022/07/19 02:03:37;;;;;;;4.15;1.80;;;;;;;23.43;41.62;100818.66;9912234;29;20201;-79
2022/07/19 02:08:40;;;;;;;4.00;2.05;;;;;;;23.49;41.17;100814.28;9912565;30;20194;-81
2022/07/19 02:13:43;;;;;;;3.97;1.90;;;;;;;23.72;40.82;100815.16;9896642;30;20519;-79
2022/07/19 02:18:45;;;;;;;4.60;1.98;;;;;;;23.63;42.18;100811.69;9912049;30;20197;-80
2022/07/19 02:23:47;;;;;;;2.45;1.48;;;;;;;23.38;41.93;100804.69;9912343;30;20223;-80
2022/07/19 02:28:50;;;;;;;4.95;2.22;;;;;;;23.26;43.22;100803.63;9910116;29;20185;-80
2022/07/19 02:33:52;;;;;;;5.97;2.13;;;;;;;23.06;42.90;100807.69;9910557;30;20233;-80
2022/07/19 02:38:55;;;;;;;5.63;1.95;;;;;;;23.15;43.09;100798.91;9910860;30;20201;-80
2022/07/19 02:43:58;;;;;;;3.03;2.25;;;;;;;22.73;44.07;100807.34;9910839;30;20657;-80
2022/07/19 02:49:00;;;;;;;2.72;2.13;;;;;;;23.05;43.31;100796.66;9895530;30;20270;-80
2022/07/19 02:54:02;;;;;;;3.78;2.17;;;;;;;22.80;44.14;100799.81;9895626;30;20251;-80
2022/07/19 02:59:05;;;;;;;9.05;2.00;;;;;;;22.79;43.76;100800.19;9880971;30;20254;-80
2022/07/19 03:04:07;;;;;;;3.67;1.95;;;;;;;22.42;44.83;100789.16;9910250;30;20197;-80
2022/07/19 03:09:11;;;;;;;3.15;1.90;;;;;;;22.81;43.66;100787.22;9918392;29;20202;-80
2022/07/19 03:14:14;;;;;;;5.18;2.10;;;;;;;22.82;44.35;100799.44;9909788;30;20251;-80
2022/07/19 03:19:16;;;;;;;5.45;1.95;;;;;;;22.88;43.18;100797.94;9910004;30;20197;-80
2022/07/19 03:24:18;;;;;;;4.78;1.20;;;;;;;22.75;43.63;100794.38;9911106;30;20186;-80
2022/07/19 03:29:20;;;;;;;3.35;1.48;;;;;;;22.91;43.42;100795.16;9857925;30;20579;-80
2022/07/19 03:34:30;;;;;;;1.77;1.63;;;;;;;22.81;42.84;100792.91;9887487;30;20233;-80
2022/07/19 03:39:32;;;;;;;3.92;1.98;;;;;;;22.60;44.18;100787.50;9876827;30;20209;-80
2022/07/19 03:44:35;;;;;;;3.88;1.88;;;;;;;22.69;44.10;100797.94;9917025;30;20243;-80
2022/07/19 03:49:37;;;;;;;2.20;1.45;;;;;;;22.76;43.98;100795.22;9916681;30;20201;-80
2022/07/19 03:54:40;;;;;;;5.32;1.92;;;;;;;22.73;43.98;100802.47;9901226;30;20290;-80
2022/07/19 03:59:42;;;;;;;5.18;2.08;;;;;;;23.45;41.92;100799.13;9917373;30;20583;-81
2022/07/19 04:04:44;;;;;;;2.35;1.80;;;;;;;23.21;43.28;100806.78;9931056;29;20202;-80
2022/07/19 04:09:47;;;;;;;6.03;2.13;;;;;;;23.01;43.51;100802.28;9924056;29;20598;-80
2022/07/19 04:14:49;;;;;;;4.65;1.90;;;;;;;23.21;42.73;100811.66;9915921;30;20271;-80
2022/07/19 04:19:51;;;;;;;2.95;1.65;;;;;;;23.18;43.55;100801.00;9915468;30;20227;-80
2022/07/19 04:24:53;;;;;;;5.30;1.85;;;;;;;23.60;42.92;100801.88;9916250;30;20492;-80
2022/07/19 04:29:56;;;;;;;6.03;2.33;;;;;;;23.65;42.79;100800.72;9885480;29;20333;-80
2022/07/19 04:34:59;;;;;;;7.25;2.08;;;;;;;23.93;42.23;100798.41;9900311;30;20284;-80
2022/07/19 04:40:01;;;;;;;4.72;1.77;;;;;;;23.99;41.25;100796.91;9914611;30;20205;-80
2022/07/19 04:45:04;;;;;;;5.22;2.10;;;;;;;24.12;41.48;100799.53;9900053;30;20194;-80
2022/07/19 04:50:07;;;;;;;2.88;1.90;;;;;;;24.26;40.98;100806.31;9884636;30;20205;-80
2022/07/19 04:55:09;;;;;;;3.42;1.98;;;;;;;24.15;42.78;100796.72;9913634;30;20306;-80
2022/07/19 05:00:12;;;;;;;6.82;2.17;;;;;;;24.04;42.41;100799.41;9929096;29;20583;-81
2022/07/19 05:05:14;;;;;;;4.43;1.98;;;;;;;23.75;43.68;100799.25;9914072;29;20484;-80
2022/07/19 05:10:17;;;;;;;9.10;3.28;;;;;;;23.72;44.07;100800.03;9898650;30;20268;-80
2022/07/19 05:15:19;;;;;;;13.20;3.08;;;;;;;23.65;44.69;100804.41;9914428;30;20221;-80
2022/07/19 05:20:21;;;;;;;23.83;2.83;;;;;;;23.71;44.39;100787.78;9898507;30;20499;-80
2022/07/19 05:25:23;;;;;;;23.48;4.13;;;;;;;24.07;42.16;100786.41;9913929;30;20205;-80
2022/07/19 05:30:26;;;;;;;10.15;3.00;;;;;;;23.96;43.07;100786.22;9898996;29;20236;-80
2022/07/19 05:35:28;;;;;;;12.30;2.60;;;;;;;24.48;42.44;100787.44;9929974;29;20252;-80
2022/07/19 05:40:30;;;;;;;8.48;2.53;;;;;;;24.59;42.43;100779.06;9925120;29;20205;-80
2022/07/19 05:45:33;;;;;;;9.05;2.53;;;;;;;24.78;42.31;100790.38;9919120;29;20204;-80
2022/07/19 05:50:35;;;;;;;8.85;2.60;;;;;;;24.61;43.08;100786.03;9919577;29;20200;-80
2022/07/19 05:55:37;;;;;;;6.00;2.33;;;;;;;24.82;42.72;100787.53;9906972;29;20225;-81
2022/07/19 06:01:17;;;;;;;5.93;2.28;;;;;;;24.99;42.51;100786.94;9925410;29;20202;-80
2022/07/19 06:06:02;;;;;;;11.82;2.20;;;;;;;25.13;41.81;100792.03;9928019;29;20266;-81
2022/07/19 06:11:04;;;;;;;5.63;2.67;;;;;;;25.28;42.08;100788.97;9917180;29;20204;-80
2022/07/19 06:16:09;;;;;;;5.70;2.53;;;;;;;25.31;42.47;100782.44;9922276;29;20272;-81
2022/07/19 06:21:17;;;;;;;11.43;3.53;;;;;;;25.42;42.10;100782.59;9903416;29;20279;-81
2022/07/19 06:26:19;;;;;;;8.70;2.85;;;;;;;25.77;40.83;100784.97;9911433;29;20204;-81
2022/07/19 06:31:22;;;;;;;5.70;2.90;;;;;;;26.38;39.20;100792.09;9942451;29;20236;-80
2022/07/19 06:36:24;;;;;;;6.15;2.33;;;;;;;26.22;39.26;100794.38;9905118;29;20248;-81
2022/07/19 06:41:27;;;;;;;7.43;2.33;;;;;;;26.38;37.71;100792.09;9923611;29;20201;-81
2022/07/19 06:46:32;;;;;;;3.33;2.30;;;;;;;26.52;37.39;100783.56;9917232;29;20204;-81
2022/07/19 06:51:34;;;;;;;4.95;1.92;;;;;;;26.76;35.79;100780.03;9925805;29;20204;-81
2022/07/19 06:56:37;;;;;;;2.70;1.63;;;;;;;27.12;35.27;100771.63;9920015;29;20251;-81
2022/07/19 07:01:39;;;;;;;4.97;1.85;;;;;;;27.28;34.65;100774.94;9898701;29;20680;-82
2022/07/19 07:06:42;;;;;;;4.95;1.88;;;;;;;27.30;35.37;100780.28;9908223;29;20599;-81
2022/07/19 07:11:44;;;;;;;2.88;1.65;;;;;;;27.69;34.40;100771.78;9921467;29;20205;-81
2022/07/19 07:16:46;;;;;;;4.05;1.85;;;;;;;28.42;33.05;100775.88;9920612;29;20254;-81
2022/07/19 07:21:49;;;;;;;3.13;1.85;;;;;;;28.73;32.44;100782.81;9916023;29;20209;-81
2022/07/19 07:26:51;;;;;;;8.88;2.20;;;;;;;28.98;31.95;100784.78;9894604;29;20565;-81
2022/07/19 07:31:54;;;;;;;6.30;2.08;;;;;;;29.16;31.65;100768.25;9932822;29;20658;-82
2022/07/19 07:36:56;;;;;;;4.75;1.80;;;;;;;28.84;33.02;100774.97;9939778;29;20251;-81
2022/07/19 07:41:59;;;;;;;3.55;1.50;;;;;;;29.32;32.52;100780.16;9919347;29;20545;-81
2022/07/19 07:47:13;;;;;;;3.38;1.98;;;;;;;29.57;31.36;100782.88;9914807;29;20197;-81
2022/07/19 07:52:16;;;;;;;3.20;1.77;;;;;;;30.26;30.91;100779.88;9914650;29;20666;-82
2022/07/19 07:57:18;;;;;;;3.15;1.48;;;;;;;30.59;30.25;100780.41;9881020;29;20278;-81
2022/07/19 08:02:21;;;;;;;6.50;1.90;;;;;;;30.74;30.33;100770.34;9905913;29;20205;-81
2022/07/19 08:07:23;;;;;;;3.70;1.80;;;;;;;31.06;28.59;100753.44;9942519;29;20344;-81
2022/07/19 08:12:26;;;;;;;4.72;2.08;;;;;;;31.09;27.75;100757.53;9951838;29;20541;-81
2022/07/19 08:17:28;;;;;;;3.15;2.20;;;;;;;31.36;26.35;100743.16;9904193;30;20221;-80
2022/07/19 08:22:31;;;;;;;5.22;2.90;;;;;;;31.42;24.87;100744.28;9885929;30;20477;-81
2022/07/19 08:27:33;;;;;;;6.50;2.70;;;;;;;31.77;24.07;100742.16;9899726;29;20615;-81
2022/07/19 08:32:36;;;;;;;4.45;2.30;;;;;;;32.08;23.36;100732.06;9884626;30;20708;-83
2022/07/19 08:37:39;;;;;;;4.75;2.08;;;;;;;32.44;23.12;100733.06;9884818;30;20292;-81
2022/07/19 08:42:42;;;;;;;6.53;2.00;;;;;;;32.86;22.89;100726.88;9863313;30;20263;-81
2022/07/19 08:47:45;;;;;;;6.93;2.58;;;;;;;32.63;22.91;100728.56;9879077;30;20201;-81
2022/07/19 08:52:48;;;;;;;12.40;3.08;;;;;;;32.80;22.61;100729.50;9870085;30;20235;-82
2022/07/19 08:57:57;;;;;;;10.23;2.20;;;;;;;33.61;21.79;100723.16;9892588;30;20214;-82
2022/07/19 09:03:00;;;;;;;7.22;2.35;;;;;;;33.97;21.74;100723.91;9885331;30;20239;-82
2022/07/19 09:08:06;;;;;;;4.28;2.00;;;;;;;34.08;21.58;100724.44;9913635;30;20266;-81
2022/07/19 09:13:16;;;;;;;6.25;1.90;;;;;;;34.19;21.15;100715.47;9913527;30;20197;-80
2022/07/19 09:18:28;;;;;;;7.03;1.55;;;;;;;34.14;20.45;100710.16;9904545;30;20271;-81
2022/07/19 09:23:31;;;;;;;3.80;1.77;;;;;;;34.16;20.12;100716.34;9898566;30;20562;-81
2022/07/19 09:28:35;;;;;;;4.78;1.63;;;;;;;34.26;20.42;100711.56;9887331;30;20223;-81
2022/07/19 09:33:37;;;;;;;4.53;1.60;;;;;;;34.97;19.61;100697.88;9900402;30;20318;-82
2022/07/19 09:38:43;;;;;;;7.72;1.92;;;;;;;34.50;20.12;100707.94;9848658;29;20270;-82
2022/07/19 09:43:54;;;;;;;3.40;1.75;;;;;;;35.05;18.79;100700.09;9899046;30;20258;-82
2022/07/19 09:49:12;;;;;;;4.03;1.67;;;;;;;35.06;18.71;100693.00;9863647;30;20267;-81
2022/07/19 09:54:17;;;;;;;3.38;1.60;;;;;;;34.77;18.82;100683.56;9875279;30;20230;-81
2022/07/19 09:59:21;;;;;;;4.15;1.65;;;;;;;35.50;17.61;100679.56;9853402;30;20561;-82
2022/07/19 10:04:25;;;;;;;3.85;1.60;;;;;;;33.96;19.30;100687.44;9881741;30;20197;-82
2022/07/19 10:09:29;;;;;;;3.85;1.08;;;;;;;34.62;18.26;100688.13;9911757;30;20596;-82
2022/07/19 10:14:32;;;;;;;3.97;1.33;;;;;;;34.58;18.62;100676.59;9896505;30;20229;-83
2022/07/19 10:19:38;;;;;;;4.05;1.30;;;;;;;35.24;17.79;100670.03;9910959;29;20720;-82
2022/07/19 10:24:53;;;;;;;5.28;1.38;;;;;;;36.02;17.07;100657.06;9911259;29;20197;-84
2022/07/19 10:29:58;;;;;;;9.38;1.80;;;;;;;34.51;17.37;100660.22;9895678;29;20303;-81
2022/07/19 10:35:25;;;;;;;4.53;1.60;;;;;;;34.58;17.34;100655.44;9902677;29;20229;-81
2022/07/19 10:40:40;;;;;;;5.40;1.30;;;;;;;34.92;17.87;100649.84;9911507;30;20193;-82
2022/07/19 10:46:03;;;;;;;2.30;1.20;;;;;;;34.86;18.25;100640.09;9910406;30;20192;-83
2022/07/19 10:51:26;;;;;;;2.40;1.00;;;;;;;35.12;17.81;100638.06;9909957;30;20875;-82
2022/07/19 10:56:34;;;;;;;3.25;1.30;;;;;;;35.37;16.87;100631.41;9880645;30;20773;-82
2022/07/19 11:01:56;;;;;;;4.38;1.40;;;;;;;35.68;16.11;100632.47;9873849;29;20630;-82
2022/07/19 11:07:18;;;;;;;2.42;1.23;;;;;;;35.74;17.65;100613.09;9910107;30;20193;-81
2022/07/19 11:12:25;;;;;;;7.88;1.48;;;;;;;35.99;17.13;100611.41;9893655;30;20547;-81
2022/07/19 11:17:27;;;;;;;8.70;1.65;;;;;;;35.94;16.56;100615.75;9888920;30;20252;-81
2022/07/19 11:22:57;;;;;;;7.10;1.60;;;;;;;35.90;17.55;100609.22;9894829;30;20198;-81
2022/07/19 11:28:00;;;;;;;1.98;1.33;;;;;;;36.18;16.99;100599.47;9879190;29;20611;-82
2022/07/19 11:33:04;;;;;;;2.42;1.42;;;;;;;36.10;15.70;100600.19;9881991;30;20241;-82
2022/07/19 11:38:06;;;;;;;7.25;1.27;;;;;;;36.98;16.42;100593.88;9875857;30;20298;-82
2022/07/19 11:43:10;;;;;;;3.47;1.40;;;;;;;36.27;15.52;100582.06;9894856;30;20197;-82
2022/07/19 11:48:30;;;;;;;3.47;1.42;;;;;;;36.69;16.22;100584.63;9909219;30;20262;-81
2022/07/19 11:53:33;;;;;;;3.50;1.50;;;;;;;36.48;15.29;100571.69;9910006;30;20240;-82
2022/07/19 11:58:35;;;;;;;3.80;1.50;;;;;;;36.60;14.91;100567.88;9908818;30;20247;-82
2022/07/19 12:03:38;;;;;;;5.15;1.52;;;;;;;36.70;15.78;100567.97;9915663;29;20260;-81
2022/07/19 12:08:43;;;;;;;6.15;1.45;;;;;;;37.19;16.17;100560.09;9901116;30;20205;-81
2022/07/19 12:13:47;;;;;;;3.45;1.40;;;;;;;37.29;14.02;100558.84;9916538;30;20254;-82
2022/07/19 12:18:56;;;;;;;3.58;1.70;;;;;;;37.33;14.90;100550.75;9915555;30;20194;-81
2022/07/19 12:24:22;;;;;;;2.75;1.20;;;;;;;37.46;13.55;100533.13;9915292;30;20201;-82
2022/07/19 12:29:42;;;;;;;5.40;1.33;;;;;;;37.68;14.14;100538.81;9900435;29;20209;-82
2022/07/19 12:34:57;;;;;;;3.85;1.60;;;;;;;37.76;14.40;100531.41;9914777;30;20213;-81
2022/07/19 12:40:14;;;;;;;3.78;1.48;;;;;;;38.38;13.28;100531.03;9900789;30;20201;-82
2022/07/19 12:45:19;;;;;;;3.80;1.33;;;;;;;38.01;13.14;100522.31;9914594;30;20258;-82
2022/07/19 12:50:36;;;;;;;2.33;1.10;;;;;;;38.64;13.02;100517.66;9913862;30;20255;-81
2022/07/19 12:55:40;;;;;;;3.95;1.67;;;;;;;37.86;12.17;100521.34;9884456;30;20217;-81
2022/07/19 13:00:43;;;;;;;3.10;1.15;;;;;;;37.88;13.10;100512.09;9908769;29;20234;-81
2022/07/19 13:05:45;;;;;;;3.88;1.30;;;;;;;38.14;12.96;100512.59;9896573;29;20233;-82
2022/07/19 13:10:47;;;;;;;3.58;1.25;;;;;;;38.19;13.21;100500.22;9939350;29;20201;-81
2022/07/19 13:15:49;;;;;;;1.40;1.10;;;;;;;38.79;12.09;100487.72;9910893;29;20567;-81
2022/07/19 13:20:52;;;;;;;2.15;1.20;;;;;;;38.12;13.22;100491.78;9912863;29;20262;-81
2022/07/19 13:25:54;;;;;;;3.78;1.48;;;;;;;38.36;12.09;100481.84;9917061;29;20198;-81
2022/07/19 13:30:56;;;;;;;3.10;1.38;;;;;;;38.41;11.76;100489.16;9899941;29;20233;-81
2022/07/19 13:35:58;;;;;;;3.55;1.20;;;;;;;38.58;11.80;100469.94;9905308;30;20225;-81
2022/07/19 13:41:02;;;;;;;3.55;1.40;;;;;;;38.76;11.99;100462.41;9896279;30;20504;-82
2022/07/19 13:46:04;;;;;;;3.67;1.08;;;;;;;38.76;11.91;100462.41;9930920;29;20205;-81
2022/07/19 13:51:07;;;;;;;3.50;1.40;;;;;;;38.80;11.86;100455.06;9925304;29;20220;-81
2022/07/19 13:56:10;;;;;;;3.15;1.27;;;;;;;38.59;12.20;100442.31;9866812;29;20278;-82
2022/07/19 14:01:13;;;;;;;2.15;1.15;;;;;;;39.41;11.34;100438.94;9907470;29;20208;-80
2022/07/19 14:06:35;;;;;;;4.93;1.83;;;;;;;39.87;11.63;100437.72;9924526;29;20253;-81
2022/07/19 14:11:38;;;;;;;2.65;1.33;;;;;;;40.01;11.08;100422.28;9913505;29;20206;-81
2022/07/19 14:16:41;;;;;;;2.92;1.30;;;;;;;39.76;11.99;100420.72;9877877;29;20262;-82
2022/07/19 14:21:43;;;;;;;4.03;1.38;;;;;;;39.78;12.09;100421.06;9899334;29;20235;-81
2022/07/19 14:26:45;;;;;;;1.35;1.20;;;;;;;39.22;12.47;100419.88;9907010;29;20303;-80
2022/07/19 14:31:48;;;;;;;3.88;1.15;;;;;;;39.65;11.17;100402.94;9912443;29;20512;-81
2022/07/19 14:36:50;;;;;;;2.58;1.52;;;;;;;39.15;11.95;100410.66;9899651;29;20278;-81
2022/07/19 14:41:53;;;;;;;2.08;1.52;;;;;;;39.19;11.46;100388.72;9909286;29;20204;-80
2022/07/19 14:46:55;;;;;;;4.28;1.20;;;;;;;39.54;11.39;100391.03;9923508;29;20278;-80
2022/07/19 14:51:58;;;;;;;1.85;1.30;;;;;;;39.21;12.19;100391.91;9907307;30;20845;-80
2022/07/19 14:57:00;;;;;;;3.15;1.60;;;;;;;39.45;12.12;100379.41;9909021;30;20228;-80
2022/07/19 15:02:03;;;;;;;4.78;1.20;;;;;;;38.31;12.48;100373.59;9893445;29;20233;-81
2022/07/19 15:07:05;;;;;;;2.45;0.90;;;;;;;38.15;12.60;100365.25;9907409;29;20302;-80
2022/07/19 15:12:08;;;;;;;4.50;1.45;;;;;;;39.47;11.19;100362.13;9905172;29;20564;-80
2022/07/19 15:17:18;;;;;;;2.88;1.20;;;;;;;39.60;11.55;100350.94;9884999;29;20287;-80
2022/07/19 15:22:20;;;;;;;3.40;1.23;;;;;;;39.88;11.73;100340.56;9884866;29;20253;-80
2022/07/19 15:27:23;;;;;;;4.32;1.70;;;;;;;39.86;12.17;100336.53;9908998;30;20197;-79
2022/07/19 15:32:25;;;;;;;2.50;1.20;;;;;;;39.67;11.35;100338.84;9892107;30;20293;-79
2022/07/19 15:37:27;;;;;;;7.47;1.27;;;;;;;39.61;11.80;100337.91;9891577;29;20221;-80
2022/07/19 15:42:30;;;;;;;3.08;1.50;;;;;;;39.20;11.73;100337.63;9903649;30;20197;-79
2022/07/19 15:47:32;;;;;;;3.10;1.08;;;;;;;39.19;11.94;100329.38;9919049;29;20503;-80
2022/07/19 15:52:35;;;;;;;5.22;1.30;;;;;;;39.60;11.70;100313.69;9920694;29;20503;-79
2022/07/19 15:57:42;;;;;;;4.40;1.63;;;;;;;39.02;12.35;100317.34;9907691;29;20249;-79
2022/07/19 16:02:44;;;;;;;3.33;1.95;;;;;;;39.06;12.14;100312.91;9899254;30;20681;-80
2022/07/19 16:07:47;;;;;;;2.85;1.45;;;;;;;39.32;11.47;100309.44;9895480;29;20193;-79
2022/07/19 16:12:49;;;;;;;2.97;1.60;;;;;;;38.82;12.11;100302.50;9882815;30;20593;-80
2022/07/19 16:17:51;;;;;;;4.78;1.50;;;;;;;38.73;12.37;100292.50;9910186;29;20221;-80
2022/07/19 16:22:54;;;;;;;5.18;1.40;;;;;;;38.93;12.56;100294.00;9933625;29;20202;-80
2022/07/19 16:27:56;;;;;;;6.03;2.03;;;;;;;38.76;12.45;100284.06;9940034;29;20206;-80
2022/07/19 16:33:00;;;;;;;3.17;1.80;;;;;;;38.66;12.99;100287.06;9913706;29;20244;-80
2022/07/19 16:38:03;;;;;;;3.13;1.60;;;;;;;38.47;12.11;100273.84;9943905;29;20224;-80
2022/07/19 16:43:05;;;;;;;3.33;1.42;;;;;;;38.59;12.83;100281.56;9942784;29;20205;-79
2022/07/19 16:48:11;;;;;;;3.65;1.50;;;;;;;38.57;12.31;100269.56;9936330;29;20201;-80
2022/07/19 16:53:14;;;;;;;3.28;1.83;;;;;;;38.57;12.46;100284.19;9877390;30;20186;-80
2022/07/19 16:58:16;;;;;;;4.05;1.45;;;;;;;38.32;12.40;100276.69;9897665;29;20311;-79
2022/07/19 17:03:18;;;;;;;1.65;1.55;;;;;;;38.21;12.13;100267.66;9922369;29;20205;-80
2022/07/19 17:08:21;;;;;;;3.00;1.38;;;;;;;38.19;12.99;100275.31;9914621;29;20258;-80
2022/07/19 17:13:23;;;;;;;5.40;1.65;;;;;;;38.22;12.99;100280.16;9913535;29;20282;-80
2022/07/19 17:18:27;;;;;;;4.60;1.80;;;;;;;38.28;13.14;100272.34;9912514;29;20697;-80
2022/07/19 17:23:29;;;;;;;2.53;1.92;;;;;;;37.95;13.02;100281.88;9906496;29;20265;-80
2022/07/19 17:28:31;;;;;;;2.78;1.65;;;;;;;38.13;13.47;100274.34;9910443;30;20661;-80
2022/07/19 17:33:34;;;;;;;1.95;1.27;;;;;;;37.45;13.68;100273.94;9921256;29;20308;-80
2022/07/19 17:38:36;;;;;;;4.15;1.55;;;;;;;37.45;13.60;100274.75;9914863;29;20228;-80
2022/07/19 17:43:39;;;;;;;2.85;1.85;;;;;;;37.46;13.74;100264.69;9927838;29;20201;-80
2022/07/19 17:48:41;;;;;;;2.67;1.50;;;;;;;37.85;13.32;100274.47;9912201;30;20270;-80
2022/07/19 17:53:49;;;;;;;7.07;2.03;;;;;;;37.98;13.43;100272.16;9908800;29;20621;-80
2022/07/19 17:58:52;;;;;;;2.33;1.50;;;;;;;37.67;14.08;100265.75;9929059;29;20217;-80
2022/07/19 18:03:54;;;;;;;5.97;1.88;;;;;;;37.30;14.18;100273.78;9911877;29;20235;-79
2022/07/19 18:08:58;;;;;;;4.90;1.92;;;;;;;37.39;13.88;100270.03;9892445;29;20516;-80
2022/07/19 18:14:00;;;;;;;3.83;1.92;;;;;;;37.24;14.41;100269.91;9907901;29;20496;-80
2022/07/19 18:19:04;;;;;;;2.92;1.50;;;;;;;37.34;14.39;100275.25;9911424;29;20218;-80
2022/07/19 18:24:07;;;;;;;2.40;1.50;;;;;;;37.46;14.53;100272.63;9895043;29;20202;-80
2022/07/19 18:29:10;;;;;;;4.53;1.45;;;;;;;36.16;15.79;100272.19;9914181;29;20224;-79
2022/07/19 18:34:13;;;;;;;6.53;2.08;;;;;;;35.93;15.84;100271.44;9880900;30;20274;-79
2022/07/19 18:39:15;;;;;;;5.43;1.95;;;;;;;35.89;16.37;100278.69;9895879;30;20221;-79
2022/07/19 18:44:17;;;;;;;3.80;1.65;;;;;;;35.20;17.64;100276.81;9922916;29;20205;-80
2022/07/19 18:49:19;;;;;;;6.28;2.45;;;;;;;35.08;18.66;100285.59;9907956;29;20205;-80
2022/07/19 18:54:22;;;;;;;3.90;2.33;;;;;;;35.91;18.28;100285.66;9894577;30;20607;-80
2022/07/19 18:59:31;;;;;;;3.22;2.28;;;;;;;35.98;18.22;100283.78;9895264;30;20229;-79
2022/07/19 19:04:33;;;;;;;4.22;1.58;;;;;;;35.73;18.65;100285.56;9909028;29;20235;-80
2022/07/19 19:09:36;;;;;;;6.10;2.63;;;;;;;35.85;18.31;100287.56;9915849;29;20202;-80
2022/07/19 19:14:38;;;;;;;3.83;2.15;;;;;;;35.85;18.46;100287.56;9901626;29;20235;-80
2022/07/19 19:19:40;;;;;;;4.10;1.95;;;;;;;35.59;19.12;100291.97;9920780;29;20224;-80
2022/07/19 19:24:43;;;;;;;5.22;2.13;;;;;;;35.32;20.81;100300.47;9940989;29;20197;-80
2022/07/19 19:29:45;;;;;;;4.82;2.50;;;;;;;34.95;20.82;100300.16;9910311;29;20278;-80
2022/07/19 19:34:48;;;;;;;7.53;2.53;;;;;;;34.19;23.19;100318.59;9918504;29;20599;-80
2022/07/19 19:39:50;;;;;;;3.45;2.40;;;;;;;33.55;24.70;100319.75;9912989;29;20220;-81
2022/07/19 19:44:52;;;;;;;14.25;9.82;;;;;;;33.85;23.25;100321.34;9946664;29;20273;-79
2022/07/19 19:49:55;;;;;;;5.97;2.95;;;;;;;34.14;22.02;100322.03;9947495;29;20189;-81
2022/07/19 19:54:58;;;;;;;10.45;4.40;;;;;;;34.03;22.31;100332.34;9901995;29;20507;-81
2022/07/19 20:00:00;;;;;;;13.57;5.90;;;;;;;33.85;22.35;100336.66;9892672;29;20229;-81
2022/07/19 20:05:14;;;;;;;8.32;4.35;;;;;;;33.79;22.61;100335.59;9879030;29;20325;-81
2022/07/19 20:10:17;;;;;;;11.88;5.53;;;;;;;33.65;21.96;100324.41;9860605;29;20306;-81
2022/07/19 20:15:22;;;;;;;8.43;3.00;;;;;;;33.44;21.21;100330.88;9889588;29;20294;-81
2022/07/19 20:20:24;;;;;;;7.10;3.60;;;;;;;33.46;21.33;100334.13;9890826;29;20268;-80
2022/07/19 20:25:27;;;;;;;4.55;3.03;;;;;;;33.44;22.06;100330.88;9911208;29;20310;-80
2022/07/19 20:30:31;;;;;;;9.32;5.43;;;;;;;33.15;22.55;100331.66;9919977;29;20260;-80
2022/07/19 20:35:33;;;;;;;7.25;2.45;;;;;;;32.70;25.03;100342.44;9930010;29;20228;-79
2022/07/19 20:40:36;;;;;;;15.88;9.85;;;;;;;31.17;26.30;100340.13;9889979;29;20707;-83
2022/07/19 20:45:39;;;;;;;9.23;3.60;;;;;;;30.89;27.32;100334.91;9903139;29;20241;-80
2022/07/19 20:50:42;;;;;;;6.47;3.25;;;;;;;31.18;25.12;100341.78;9904366;30;20272;-80
2022/07/19 20:55:44;;;;;;;5.45;2.70;;;;;;;31.39;26.99;100338.50;9898158;29;20236;-80
2022/07/19 21:00:48;;;;;;;4.65;3.08;;;;;;;31.12;28.58;100342.75;9885009;30;20658;-80
2022/07/19 21:05:50;;;;;;;6.53;2.63;;;;;;;30.60;29.29;100351.94;9903762;30;20229;-80
2022/07/19 21:10:54;;;;;;;6.05;2.70;;;;;;;29.77;30.57;100348.69;9905504;29;20201;-80
2022/07/19 21:15:57;;;;;;;5.70;2.58;;;;;;;29.62;30.68;100345.16;9899261;29;20237;-80
2022/07/19 21:20:59;;;;;;;6.72;3.00;;;;;;;29.72;29.10;100342.59;9912006;29;20742;-79
2022/07/19 21:26:04;;;;;;;9.18;3.38;;;;;;;29.88;28.40;100348.53;9906018;30;20233;-81
2022/07/19 21:31:06;;;;;;;11.77;4.10;;;;;;;29.88;28.12;100360.06;9886777;29;20268;-80
2022/07/19 21:36:09;;;;;;;6.78;4.57;;;;;;;29.56;28.48;100354.72;9892313;29;20252;-80
2022/07/19 21:41:11;;;;;;;8.70;5.38;;;;;;;29.55;28.33;100347.31;9848058;30;20234;-80
2022/07/19 21:46:13;;;;;;;8.23;6.20;;;;;;;29.50;28.51;100344.91;9903717;30;20700;-80
2022/07/19 21:51:17;;;;;;;7.75;5.65;;;;;;;29.30;29.42;100345.59;9911001;30;20660;-81
2022/07/19 21:56:19;;;;;;;8.27;4.65;;;;;;;29.36;29.56;100345.91;9912236;30;20776;-80
2022/07/19 22:01:21;;;;;;;5.78;4.18;;;;;;;28.99;30.22;100357.44;9912389;30;20266;-81
2022/07/19 22:06:24;;;;;;;11.63;4.07;;;;;;;30.44;27.83;100354.69;9897132;30;20270;-80
2022/07/19 22:11:26;;;;;;;7.65;3.95;;;;;;;30.30;28.93;100350.78;9926446;29;20193;-81
2022/07/19 22:16:29;;;;;;;6.32;3.80;;;;;;;30.20;29.21;100348.88;9896521;30;20197;-81
2022/07/19 22:21:31;;;;;;;6.00;3.60;;;;;;;29.00;31.18;100359.06;9896292;30;20202;-80
2022/07/19 22:26:34;;;;;;;4.28;3.20;;;;;;;29.35;30.25;100352.91;9896281;30;20193;-81
2022/07/19 22:31:36;;;;;;;5.30;3.22;;;;;;;29.05;30.86;100352.84;9909961;29;20236;-81
2022/07/19 22:36:38;;;;;;;3.67;3.28;;;;;;;29.45;28.91;100360.63;9922523;29;20500;-81
2022/07/19 22:41:41;;;;;;;3.45;2.90;;;;;;;29.73;28.19;100365.22;9910857;30;20206;-80
2022/07/19 22:46:43;;;;;;;3.83;2.70;;;;;;;29.36;28.94;100357.44;9910801;30;20219;-80
2022/07/19 22:51:45;;;;;;;6.60;2.80;;;;;;;29.65;28.33;100367.34;9895512;30;20245;-80
2022/07/19 22:56:48;;;;;;;3.90;2.50;;;;;;;29.49;28.51;100361.38;9911456;30;20197;-80
2022/07/19 23:01:50;;;;;;;8.57;3.05;;;;;;;29.44;28.62;100353.22;9895819;30;20202;-80
2022/07/19 23:06:57;;;;;;;10.43;3.05;;;;;;;29.09;28.38;100344.97;9914466;29;20196;-82
2022/07/19 23:12:00;;;;;;;6.78;3.05;;;;;;;29.19;28.05;100338.31;9947623;29;20253;-80
2022/07/19 23:17:02;;;;;;;5.78;2.85;;;;;;;28.83;28.31;100341.53;9939728;29;20250;-80
2022/07/19 23:22:05;;;;;;;7.55;2.80;;;;;;;29.20;27.71;100342.81;9911258;29;20596;-80
2022/07/19 23:27:07;;;;;;;7.72;2.60;;;;;;;29.23;27.78;100337.00;9895072;30;20194;-80
2022/07/19 23:32:09;;;;;;;3.28;2.33;;;;;;;29.08;27.30;100331.81;9924595;29;20298;-80